Weather at UYEM HELIPORT

Public forecast

Using degrees Celsius for public forecast. Weather courtesy of forecast.io.

Closest aviation weather report (METAR) to UYEM HELIPORT

Closest report is Antalya International Airport, 10.0 nm (18.6 km) ESE. Retrieved 2022/01/21 19:20 UTC (27 minutes ago):

LTAI 211920Z 05002KT 8000 -SHRA BKN030 09/07 Q1022 NOSIG RMK RWY18C 06003KT 020V080 RWY36R 03002KT RWY18L VRB02KT

Closest aviation forecast (TAF) to UYEM HELIPORT

Closest forecast is Antalya International Airport, 10.0 nm (18.6 km) ESE. Retrieved 2022/01/21 18:03 UTC (2 hours ago):

TAF LTAI 211640Z 2118/2218 VRB02KT 9999 BKN030 BECMG 2118/2121 -SHRA BECMG 2212/2215 SCT030